Time;durP1;ratioP1;P1;durP2;ratioP2;P2;SDS_P1;SDS_P2;PMS_P1;PMS_P2;Temp;Humidity;BMP_temperature;BMP_pressure;BME280_temperature;BME280_humidity;BME280_pressure;Samples;Min_cycle;Max_cycle;Signal;HPM_P1;HPM_P2
2022/12/24 00:02:00;;;;;;;33.28;3.90;;;10.50;99.90;;;;;;4992669;28;20451;-69
2022/12/24 00:04:26;;;;;;;28.08;3.30;;;10.40;99.90;;;;;;4998573;28;20038;-69
2022/12/24 00:06:52;;;;;;;21.75;3.88;;;10.40;99.90;;;;;;4992323;28;20101;-68
2022/12/24 00:09:17;;;;;;;16.92;4.13;;;10.40;99.90;;;;;;4992156;28;20037;-66
2022/12/24 00:11:43;;;;;;;26.05;3.97;;;10.30;99.90;;;;;;4994419;28;20055;-68
2022/12/24 00:14:08;;;;;;;16.70;3.83;;;10.30;99.90;;;;;;5001536;28;20050;-66
2022/12/24 00:16:34;;;;;;;19.70;4.03;;;10.30;99.90;;;;;;4999053;28;20443;-66
2022/12/24 00:19:00;;;;;;;15.05;3.20;;;10.30;99.90;;;;;;5005517;28;20026;-67
2022/12/24 00:21:25;;;;;;;17.27;2.95;;;10.40;99.90;;;;;;5006481;28;20575;-67
2022/12/24 00:23:51;;;;;;;15.43;3.90;;;10.30;99.90;;;;;;4994946;28;20093;-65
2022/12/24 00:26:17;;;;;;;19.77;3.70;;;10.30;99.90;;;;;;4994295;28;20034;-67
2022/12/24 00:28:42;;;;;;;18.60;3.10;;;10.30;99.90;;;;;;4994141;28;20046;-67
2022/12/24 00:31:14;;;;;;;20.35;3.67;;;10.20;99.90;;;;;;5003071;28;20037;-68
2022/12/24 00:33:40;;;;;;;26.88;3.85;;;10.10;99.90;;;;;;4991939;28;20022;-66
2022/12/24 00:36:07;;;;;;;17.88;3.40;;;10.00;99.90;;;;;;4991883;28;20034;-66
2022/12/24 00:38:32;;;;;;;18.42;3.20;;;9.90;99.90;;;;;;4994673;28;20025;-67
2022/12/24 00:41:04;;;;;;;20.67;3.08;;;9.90;99.90;;;;;;4996512;28;20041;-66
2022/12/24 00:43:30;;;;;;;25.83;4.20;;;9.90;99.90;;;;;;5008348;28;20105;-66
2022/12/24 00:45:56;;;;;;;13.80;2.42;;;9.80;99.90;;;;;;5006454;28;20033;-68
2022/12/24 00:48:22;;;;;;;18.73;3.97;;;9.80;99.90;;;;;;5002800;28;20377;-67
2022/12/24 00:50:49;;;;;;;20.92;3.35;;;9.80;99.90;;;;;;5011022;28;20026;-67
2022/12/24 00:53:15;;;;;;;29.92;5.07;;;9.70;99.90;;;;;;5009991;28;20029;-66
2022/12/24 00:55:41;;;;;;;23.90;5.68;;;9.80;99.90;;;;;;4998503;28;20401;-69
2022/12/24 00:58:07;;;;;;;14.05;3.45;;;9.80;99.90;;;;;;4992635;28;20034;-66
2022/12/24 01:00:32;;;;;;;21.77;3.08;;;9.90;99.90;;;;;;4998839;28;20413;-64
2022/12/24 01:02:58;;;;;;;24.45;4.25;;;9.90;99.90;;;;;;4996568;28;20034;-68
2022/12/24 01:05:23;;;;;;;10.82;1.92;;;9.90;99.90;;;;;;5006295;28;20442;-66
2022/12/24 01:07:49;;;;;;;22.90;3.45;;;9.90;99.90;;;;;;4997299;28;20428;-66
2022/12/24 01:10:19;;;;;;;20.48;3.05;;;9.80;99.90;;;;;;4991080;28;20073;-66
2022/12/24 01:12:45;;;;;;;26.95;3.35;;;9.80;99.90;;;;;;4991593;28;20030;-67
2022/12/24 01:15:13;;;;;;;28.25;3.83;;;9.80;99.90;;;;;;4991524;28;20065;-67
2022/12/24 01:17:39;;;;;;;23.90;4.20;;;9.80;99.90;;;;;;4992014;28;20061;-67
2022/12/24 01:20:07;;;;;;;21.10;2.75;;;9.80;99.90;;;;;;5007962;28;20032;-68
2022/12/24 01:22:33;;;;;;;22.20;3.65;;;9.70;99.90;;;;;;5010934;28;20037;-68
2022/12/24 01:24:59;;;;;;;25.17;2.83;;;9.80;99.90;;;;;;5010979;28;20026;-66
2022/12/24 01:27:24;;;;;;;20.27;3.35;;;9.80;99.90;;;;;;5010854;28;20045;-68
2022/12/24 01:29:50;;;;;;;24.40;4.22;;;9.90;99.90;;;;;;5010532;28;20104;-66
2022/12/24 01:32:15;;;;;;;16.75;3.28;;;9.80;99.90;;;;;;5009817;28;20403;-68
2022/12/24 01:34:41;;;;;;;21.00;3.35;;;9.80;99.90;;;;;;5009826;28;20113;-67
2022/12/24 01:37:07;;;;;;;25.08;4.57;;;9.80;99.90;;;;;;4999582;28;20022;-67
2022/12/24 01:39:32;;;;;;;16.50;3.40;;;9.80;99.90;;;;;;4994865;28;20464;-67
2022/12/24 01:44:50;;;;;;;17.27;2.53;;;9.70;99.90;;;;;;5014719;28;20092;-68
2022/12/24 01:47:25;;;;;;;26.30;5.10;;;9.80;99.90;;;;;;5012902;28;20411;-67
2022/12/24 01:50:00;;;;;;;22.45;3.88;;;9.80;99.90;;;;;;4994562;28;20022;-67
2022/12/24 01:52:31;;;;;;;16.90;2.75;;;9.80;99.90;;;;;;5012813;28;20072;-67
2022/12/24 01:55:04;;;;;;;10.25;2.90;;;9.90;99.90;;;;;;5014617;28;20104;-68
2022/12/24 01:57:41;;;;;;;17.73;3.67;;;9.90;99.90;;;;;;5012794;28;20530;-68
2022/12/24 02:00:12;;;;;;;21.58;3.63;;;9.90;99.90;;;;;;5005365;28;20076;-66
2022/12/24 02:02:46;;;;;;;18.52;3.65;;;9.90;99.90;;;;;;5006402;28;20499;-65
2022/12/24 02:05:29;;;;;;;20.38;3.90;;;10.00;99.90;;;;;;5010896;28;20030;-67
2022/12/24 02:07:56;;;;;;;12.15;3.00;;;10.00;99.90;;;;;;5003643;28;20034;-68
2022/12/24 02:10:21;;;;;;;21.90;4.15;;;10.00;99.90;;;;;;5004315;28;20542;-68
2022/12/24 02:12:48;;;;;;;13.93;2.60;;;10.00;99.90;;;;;;4994736;28;20030;-67
2022/12/24 02:15:17;;;;;;;21.35;3.33;;;10.00;99.90;;;;;;4997672;28;20056;-66
2022/12/24 02:18:25;;;;;;;17.15;2.30;;;9.90;99.90;;;;;;5012680;28;20502;-67
2022/12/24 02:21:17;;;;;;;17.90;2.40;;;9.90;99.90;;;;;;4999113;28;20034;-66
2022/12/24 02:23:52;;;;;;;15.73;2.80;;;9.90;99.90;;;;;;4994359;28;20030;-67
2022/12/24 02:26:27;;;;;;;12.82;2.75;;;9.90;99.90;;;;;;4994550;28;20042;-67
2022/12/24 02:29:34;;;;;;;18.55;3.33;;;9.80;99.90;;;;;;5005131;28;20030;-67
2022/12/24 02:32:22;;;;;;;15.38;3.40;;;9.90;99.90;;;;;;5000466;28;20488;-67
2022/12/24 02:35:00;;;;;;;20.00;3.05;;;9.90;99.90;;;;;;5013099;28;20030;-66
2022/12/24 02:37:32;;;;;;;19.83;2.50;;;9.90;99.90;;;;;;5001831;28;20037;-66
2022/12/24 02:40:06;;;;;;;22.10;4.07;;;9.90;99.90;;;;;;4998121;28;20527;-66
2022/12/24 02:42:39;;;;;;;17.40;2.88;;;9.80;99.90;;;;;;5007809;28;20129;-68
2022/12/24 02:45:08;;;;;;;21.45;2.35;;;9.80;99.90;;;;;;5009412;28;20026;-65
2022/12/24 02:47:35;;;;;;;14.18;3.03;;;9.70;99.90;;;;;;5004171;28;20022;-66
2022/12/24 02:50:02;;;;;;;17.67;2.88;;;9.70;99.90;;;;;;5013251;28;20512;-68
2022/12/24 02:52:37;;;;;;;19.15;2.85;;;9.80;99.90;;;;;;5012505;28;20061;-69
2022/12/24 02:55:06;;;;;;;20.80;3.92;;;9.80;99.90;;;;;;5004163;28;20029;-68
2022/12/24 02:58:06;;;;;;;16.60;3.88;;;9.80;99.90;;;;;;5001459;28;20037;-67
2022/12/24 03:00:49;;;;;;;18.92;3.55;;;9.80;99.90;;;;;;4997876;28;20034;-67
2022/12/24 03:03:42;;;;;;;15.27;2.83;;;9.80;99.90;;;;;;5004665;28;20454;-68
2022/12/24 03:06:21;;;;;;;15.77;3.08;;;9.80;99.90;;;;;;5013126;28;20484;-67
2022/12/24 03:08:53;;;;;;;25.45;3.10;;;9.90;99.90;;;;;;4993672;28;20427;-66
2022/12/24 03:11:19;;;;;;;25.48;2.83;;;9.90;99.90;;;;;;5001023;28;20105;-65
2022/12/24 03:13:47;;;;;;;18.63;3.92;;;9.90;99.90;;;;;;5008417;28;20081;-66
2022/12/24 03:16:17;;;;;;;11.52;2.25;;;9.90;99.90;;;;;;5009693;28;20030;-66
2022/12/24 03:18:46;;;;;;;18.88;3.88;;;10.00;99.90;;;;;;5009355;28;20018;-66
2022/12/24 03:21:32;;;;;;;17.10;3.30;;;10.00;99.90;;;;;;5004433;28;20038;-66
2022/12/24 03:23:58;;;;;;;18.60;3.20;;;9.90;99.90;;;;;;5013001;28;20025;-66
2022/12/24 03:26:25;;;;;;;19.73;3.17;;;9.90;99.90;;;;;;5011873;28;20029;-66
2022/12/24 03:28:51;;;;;;;16.77;3.65;;;9.90;99.90;;;;;;5002958;28;20811;-67
2022/12/24 03:31:17;;;;;;;22.42;3.50;;;9.90;99.90;;;;;;5003907;28;20034;-70
2022/12/24 03:33:44;;;;;;;15.35;3.40;;;10.00;99.90;;;;;;5012751;28;20030;-67
2022/12/24 03:36:10;;;;;;;12.52;3.30;;;9.90;99.90;;;;;;5012761;28;20029;-68
2022/12/24 03:38:36;;;;;;;19.50;2.50;;;10.00;99.90;;;;;;5008477;28;20030;-68
2022/12/24 03:41:02;;;;;;;17.42;2.60;;;9.90;99.90;;;;;;4999496;28;20419;-69
2022/12/24 03:43:27;;;;;;;10.82;2.70;;;10.00;99.90;;;;;;5010384;28;20091;-68
2022/12/24 03:45:53;;;;;;;15.45;2.22;;;10.00;99.90;;;;;;4998835;28;20105;-67
2022/12/24 03:48:19;;;;;;;12.13;2.50;;;9.90;99.90;;;;;;4993379;28;20027;-68
2022/12/24 03:50:44;;;;;;;12.43;2.63;;;10.00;99.90;;;;;;5007540;28;20029;-67
2022/12/24 03:53:10;;;;;;;12.80;2.65;;;9.90;99.90;;;;;;5008912;28;20137;-67
2022/12/24 03:55:37;;;;;;;17.23;2.25;;;9.90;99.90;;;;;;5008075;28;20030;-66
2022/12/24 03:58:03;;;;;;;9.85;2.45;;;9.80;99.90;;;;;;5007590;28;20503;-68
2022/12/24 04:00:28;;;;;;;18.33;2.10;;;9.80;99.90;;;;;;5002138;28;20026;-66
2022/12/24 04:02:54;;;;;;;14.95;2.78;;;9.70;99.90;;;;;;4997804;28;20106;-68
2022/12/24 04:05:20;;;;;;;14.73;2.50;;;9.70;99.90;;;;;;4992679;28;20030;-68
2022/12/24 04:07:46;;;;;;;7.70;2.53;;;9.70;99.90;;;;;;4991419;28;20386;-66
2022/12/24 04:10:14;;;;;;;7.40;1.73;;;9.60;99.90;;;;;;5007471;28;20043;-66
2022/12/24 04:12:39;;;;;;;9.52;2.03;;;9.50;99.90;;;;;;5011729;28;20029;-66
2022/12/24 04:15:06;;;;;;;10.00;1.85;;;9.50;99.90;;;;;;5011699;28;20456;-65
2022/12/24 04:17:32;;;;;;;7.43;1.73;;;9.50;99.90;;;;;;5011804;28;20484;-66
2022/12/24 04:19:57;;;;;;;8.05;1.63;;;9.50;99.90;;;;;;5004199;28;20038;-67
2022/12/24 04:22:23;;;;;;;10.05;1.80;;;9.40;99.90;;;;;;4999442;28;20033;-67
2022/12/24 04:24:49;;;;;;;15.88;3.10;;;9.40;99.90;;;;;;4996802;28;20045;-66
2022/12/24 04:27:15;;;;;;;9.02;1.77;;;9.30;99.90;;;;;;5011782;28;20063;-68
2022/12/24 04:29:41;;;;;;;9.57;2.60;;;9.30;99.90;;;;;;5011465;28;20372;-68
2022/12/24 04:32:06;;;;;;;10.45;1.63;;;9.20;99.90;;;;;;5003475;28;20034;-66
2022/12/24 04:34:32;;;;;;;9.40;1.38;;;9.20;99.90;;;;;;4998571;28;20126;-66
2022/12/24 04:36:57;;;;;;;10.45;1.88;;;9.20;99.90;;;;;;4997388;28;20033;-66
2022/12/24 04:39:23;;;;;;;9.93;2.10;;;9.10;99.90;;;;;;5010294;28;20083;-67
2022/12/24 04:41:49;;;;;;;12.10;2.88;;;9.10;99.90;;;;;;5040832;23;20052;-63
2022/12/24 04:44:14;;;;;;;8.88;1.67;;;9.10;99.90;;;;;;5034028;28;20025;-62
2022/12/24 04:46:41;;;;;;;12.38;1.58;;;9.10;99.90;;;;;;5050081;28;20029;-61
2022/12/24 04:49:06;;;;;;;6.53;1.52;;;9.10;99.90;;;;;;5042706;28;20474;-61
2022/12/24 04:51:32;;;;;;;10.48;1.50;;;9.00;99.90;;;;;;5045067;28;20063;-62
2022/12/24 04:53:58;;;;;;;6.53;1.52;;;9.00;99.90;;;;;;5022591;28;20021;-61
2022/12/24 04:56:26;;;;;;;9.73;2.50;;;9.00;99.90;;;;;;5031104;28;20113;-62
2022/12/24 04:58:52;;;;;;;7.47;1.85;;;9.00;99.90;;;;;;5029758;28;20040;-63
2022/12/24 05:01:21;;;;;;;6.88;1.42;;;9.00;99.90;;;;;;5019792;28;20114;-62
2022/12/24 05:03:47;;;;;;;11.32;1.65;;;8.90;99.90;;;;;;5023471;28;20052;-61
2022/12/24 05:06:16;;;;;;;5.55;1.73;;;8.90;99.90;;;;;;5029996;28;20026;-62
2022/12/24 05:08:42;;;;;;;10.77;1.52;;;8.90;99.90;;;;;;5015804;28;20022;-61
2022/12/24 05:11:08;;;;;;;7.40;1.95;;;8.90;99.90;;;;;;5021860;28;20025;-61
2022/12/24 05:13:34;;;;;;;11.85;1.85;;;8.90;99.90;;;;;;5029858;28;20029;-61
2022/12/24 05:16:00;;;;;;;10.45;2.10;;;8.90;99.90;;;;;;5024045;28;20104;-63
2022/12/24 05:18:26;;;;;;;11.05;1.90;;;8.90;99.90;;;;;;5028346;28;20116;-62
2022/12/24 05:20:51;;;;;;;6.93;1.40;;;8.90;99.90;;;;;;5022240;28;20483;-62
2022/12/24 05:26:25;;;;;;;8.10;1.70;;;8.80;99.90;;;;;;5030808;28;20095;-65
2022/12/24 05:28:53;;;;;;;6.13;1.65;;;8.80;99.90;;;;;;5028997;28;20489;-64
2022/12/24 05:31:19;;;;;;;3.22;1.42;;;8.80;99.90;;;;;;5013242;28;20045;-65
2022/12/24 05:33:45;;;;;;;9.85;2.13;;;8.80;99.90;;;;;;5030241;28;20113;-65
2022/12/24 05:36:11;;;;;;;14.07;2.30;;;8.80;99.90;;;;;;5030771;28;20422;-61
2022/12/24 05:38:37;;;;;;;10.48;2.65;;;8.80;99.90;;;;;;5029900;28;20022;-63
2022/12/24 05:41:03;;;;;;;9.88;2.65;;;8.80;99.90;;;;;;5023537;28;20048;-62
2022/12/24 05:43:28;;;;;;;10.82;2.05;;;8.80;99.90;;;;;;5025794;28;20080;-62
2022/12/24 05:45:59;;;;;;;10.98;3.28;;;8.80;99.90;;;;;;5024556;28;20034;-62
2022/12/24 05:48:25;;;;;;;6.05;2.80;;;8.80;99.90;;;;;;5029670;28;20033;-62
2022/12/24 05:50:50;;;;;;;14.43;3.25;;;8.80;99.90;;;;;;5024831;28;20037;-61
2022/12/24 05:53:16;;;;;;;7.75;3.38;;;8.80;99.90;;;;;;5027451;28;20029;-61
2022/12/24 05:55:41;;;;;;;11.30;3.70;;;8.80;99.90;;;;;;5030428;28;20067;-63
2022/12/24 05:58:07;;;;;;;9.52;3.65;;;8.80;99.90;;;;;;5028697;28;20029;-62
2022/12/24 06:00:32;;;;;;;10.35;3.30;;;8.80;99.90;;;;;;5019826;28;20044;-62
2022/12/24 06:02:58;;;;;;;5.22;2.95;;;8.80;99.90;;;;;;5015257;28;20030;-62
2022/12/24 06:05:23;;;;;;;5.28;2.33;;;8.80;99.90;;;;;;5010673;28;20065;-62
2022/12/24 06:07:49;;;;;;;9.05;2.53;;;8.70;99.90;;;;;;5024522;28;20037;-62
2022/12/24 06:10:15;;;;;;;9.75;2.35;;;8.70;99.90;;;;;;5027579;28;20033;-61
2022/12/24 06:12:41;;;;;;;7.70;2.05;;;8.60;99.90;;;;;;5014462;28;20379;-63
2022/12/24 06:15:07;;;;;;;5.63;1.85;;;8.60;99.90;;;;;;5030002;28;20081;-63
2022/12/24 06:17:32;;;;;;;13.55;2.75;;;8.50;99.90;;;;;;5030200;28;20108;-62
2022/12/24 06:19:58;;;;;;;18.08;3.08;;;8.50;99.90;;;;;;5021783;28;20168;-61
2022/12/24 06:22:24;;;;;;;11.32;2.90;;;8.60;99.90;;;;;;5013285;28;20026;-62
2022/12/24 06:24:49;;;;;;;10.45;2.30;;;8.60;99.90;;;;;;5032837;28;20029;-62
2022/12/24 06:27:15;;;;;;;12.95;3.28;;;8.60;99.90;;;;;;5025507;28;20037;-62
2022/12/24 06:29:40;;;;;;;17.85;2.95;;;8.60;99.90;;;;;;5033339;28;20030;-62
2022/12/24 06:32:06;;;;;;;10.15;2.83;;;8.60;99.90;;;;;;5033685;28;20483;-62
2022/12/24 06:34:31;;;;;;;12.02;2.53;;;8.60;99.90;;;;;;5032452;28;20391;-62
2022/12/24 06:36:57;;;;;;;12.98;2.72;;;8.60;99.90;;;;;;5018494;28;20108;-62
2022/12/24 06:39:22;;;;;;;11.57;2.65;;;8.50;99.90;;;;;;5031416;28;20022;-61
2022/12/24 06:41:48;;;;;;;10.27;2.72;;;8.50;99.90;;;;;;5033154;28;20041;-63
2022/12/24 06:44:14;;;;;;;11.32;2.60;;;8.50;99.90;;;;;;5033328;28;20026;-62
2022/12/24 06:46:39;;;;;;;12.68;3.10;;;8.50;99.90;;;;;;5027663;28;20030;-61
2022/12/24 06:49:05;;;;;;;14.90;3.58;;;8.50;99.90;;;;;;5026811;28;20037;-62
2022/12/24 06:51:30;;;;;;;13.02;2.30;;;8.50;99.90;;;;;;5016587;28;20037;-62
2022/12/24 06:53:56;;;;;;;14.50;2.83;;;8.50;99.90;;;;;;5033200;28;20063;-62
2022/12/24 06:56:21;;;;;;;11.93;3.05;;;8.50;99.90;;;;;;5031918;28;20053;-62
2022/12/24 06:58:47;;;;;;;14.45;2.85;;;8.50;99.90;;;;;;5031573;28;20487;-62
2022/12/24 07:01:16;;;;;;;7.65;2.47;;;8.50;99.90;;;;;;5023872;28;20033;-62
2022/12/24 07:03:42;;;;;;;10.70;3.00;;;8.50;99.90;;;;;;5026065;28;20022;-62
2022/12/24 07:06:24;;;;;;;14.50;4.28;;;8.60;99.90;;;;;;5028839;28;20029;-62
2022/12/24 07:08:50;;;;;;;26.20;12.05;;;8.50;99.90;;;;;;5019073;28;20076;-61
2022/12/24 07:11:16;;;;;;;33.83;11.45;;;8.50;99.90;;;;;;5024274;28;20522;-63
2022/12/24 07:13:42;;;;;;;43.30;19.88;;;8.50;99.90;;;;;;5031147;28;20132;-62
2022/12/24 07:16:07;;;;;;;24.75;10.95;;;8.50;99.90;;;;;;5027113;28;20036;-62
2022/12/24 07:18:33;;;;;;;20.50;8.10;;;8.40;99.90;;;;;;5027480;28;20018;-62
2022/12/24 07:21:00;;;;;;;17.58;4.95;;;8.40;99.90;;;;;;5024169;28;20049;-62
2022/12/24 07:23:26;;;;;;;13.32;3.63;;;8.30;99.90;;;;;;5031580;28;20037;-61
2022/12/24 07:25:51;;;;;;;17.10;2.92;;;8.20;99.90;;;;;;5023136;28;20423;-62
2022/12/24 07:28:17;;;;;;;22.38;3.78;;;8.30;99.90;;;;;;5032779;28;20055;-65
2022/12/24 07:30:43;;;;;;;10.85;2.88;;;8.20;99.90;;;;;;5031190;28;20036;-64
2022/12/24 07:33:08;;;;;;;16.92;3.60;;;8.20;99.90;;;;;;5021755;28;20033;-65
2022/12/24 07:35:34;;;;;;;21.67;4.25;;;8.30;99.90;;;;;;5024011;28;20022;-65
2022/12/24 07:38:01;;;;;;;16.95;4.32;;;8.30;99.90;;;;;;5032570;28;20022;-65
2022/12/24 07:40:26;;;;;;;29.98;5.40;;;8.30;99.90;;;;;;5032208;28;20056;-64
2022/12/24 07:42:52;;;;;;;18.42;5.43;;;8.30;99.90;;;;;;5031017;28;20647;-65
2022/12/24 07:45:17;;;;;;;42.67;7.47;;;8.30;99.90;;;;;;5029863;28;20047;-62
2022/12/24 07:47:43;;;;;;;13.98;4.43;;;8.30;99.90;;;;;;5025043;28;20025;-61
2022/12/24 07:50:09;;;;;;;19.85;4.68;;;8.40;99.90;;;;;;5031826;28;20049;-62
2022/12/24 07:52:34;;;;;;;29.15;4.30;;;8.50;99.90;;;;;;5029749;28;20517;-62
2022/12/24 07:55:00;;;;;;;23.23;5.00;;;8.50;99.90;;;;;;5015898;28;20517;-61
2022/12/24 07:57:26;;;;;;;16.13;5.43;;;8.50;99.90;;;;;;5027436;28;20437;-61
2022/12/24 07:59:51;;;;;;;23.70;4.45;;;8.60;99.90;;;;;;5025326;28;20112;-62
2022/12/24 08:02:17;;;;;;;28.55;5.63;;;8.60;99.90;;;;;;5030646;28;20479;-62
2022/12/24 08:04:42;;;;;;;22.45;4.07;;;8.60;99.90;;;;;;5026191;28;20018;-62
2022/12/24 08:07:08;;;;;;;27.52;4.07;;;8.70;99.90;;;;;;5023358;28;20033;-61
2022/12/24 08:09:35;;;;;;;25.27;4.68;;;8.70;99.90;;;;;;5023559;28;20626;-62
2022/12/24 08:12:01;;;;;;;31.88;8.50;;;8.80;99.90;;;;;;5031703;28;20398;-60
2022/12/24 08:14:28;;;;;;;21.48;4.10;;;8.80;99.90;;;;;;5028751;28;20021;-61
2022/12/24 08:16:54;;;;;;;28.92;5.60;;;8.90;99.90;;;;;;5025723;28;20025;-62
2022/12/24 08:19:19;;;;;;;40.00;11.38;;;9.00;99.90;;;;;;5031626;28;20091;-62
2022/12/24 08:21:45;;;;;;;46.88;16.90;;;9.00;99.90;;;;;;5028115;28;20017;-62
2022/12/24 08:24:10;;;;;;;29.83;9.82;;;9.00;99.90;;;;;;5014733;28;20419;-61
2022/12/24 08:26:36;;;;;;;39.70;8.00;;;9.10;99.90;;;;;;5011805;28;20510;-62
2022/12/24 08:29:03;;;;;;;25.55;6.10;;;9.10;99.90;;;;;;5011841;28;20026;-62
2022/12/24 08:31:29;;;;;;;20.33;4.18;;;9.10;99.90;;;;;;5021372;28;20029;-62
2022/12/24 08:33:54;;;;;;;27.52;4.95;;;9.10;99.90;;;;;;5021165;28;20083;-62
2022/12/24 08:36:20;;;;;;;29.98;5.15;;;9.10;99.90;;;;;;5013777;28;20080;-62
2022/12/24 08:38:46;;;;;;;24.30;5.63;;;9.10;99.90;;;;;;5024218;28;20442;-62
2022/12/24 08:41:12;;;;;;;19.92;5.20;;;9.20;99.90;;;;;;5030934;28;20017;-62
2022/12/24 08:43:37;;;;;;;26.63;6.47;;;9.20;99.90;;;;;;5027021;28;20025;-62
2022/12/24 08:46:05;;;;;;;25.67;6.30;;;9.30;99.90;;;;;;5025997;28;20467;-61
2022/12/24 08:48:31;;;;;;;16.48;5.13;;;9.30;99.90;;;;;;5029978;28;20518;-60
2022/12/24 08:50:57;;;;;;;22.95;4.47;;;9.30;99.90;;;;;;5022717;28;20041;-62
2022/12/24 08:53:23;;;;;;;21.23;4.10;;;9.40;99.90;;;;;;5027133;28;20033;-61
2022/12/24 08:55:48;;;;;;;24.38;4.60;;;9.40;99.90;;;;;;5017704;28;20072;-62
2022/12/24 08:58:14;;;;;;;29.08;5.80;;;9.50;99.90;;;;;;5012833;28;21568;-62
2022/12/24 09:00:40;;;;;;;28.08;6.35;;;9.50;99.90;;;;;;5021171;28;20030;-62
2022/12/24 09:03:05;;;;;;;17.42;5.13;;;9.50;99.90;;;;;;5014770;28;20022;-61
2022/12/24 09:05:31;;;;;;;21.67;4.25;;;9.60;99.90;;;;;;5013790;28;20044;-63
2022/12/24 09:07:56;;;;;;;14.32;3.47;;;9.60;99.90;;;;;;5022605;28;20026;-62
2022/12/24 09:10:22;;;;;;;26.35;5.15;;;9.60;99.90;;;;;;5012525;28;20034;-61
2022/12/24 09:12:48;;;;;;;18.15;4.45;;;9.60;99.90;;;;;;5025582;28;20021;-62
2022/12/24 09:15:14;;;;;;;28.05;4.30;;;9.60;99.90;;;;;;5027391;28;20171;-62
2022/12/24 09:17:40;;;;;;;27.30;4.85;;;9.70;99.90;;;;;;5030906;28;20033;-62
2022/12/24 09:20:06;;;;;;;28.80;4.95;;;9.70;99.90;;;;;;5029405;28;20048;-62
2022/12/24 09:22:36;;;;;;;16.23;4.18;;;9.70;99.90;;;;;;5025678;28;20030;-63
2022/12/24 09:25:03;;;;;;;22.83;4.57;;;9.80;99.90;;;;;;5017585;28;20040;-63
2022/12/24 09:27:30;;;;;;;26.25;4.78;;;9.80;99.90;;;;;;5030881;28;20037;-62
2022/12/24 09:29:55;;;;;;;21.83;4.53;;;9.80;99.90;;;;;;5030459;28;20036;-62
2022/12/24 09:32:21;;;;;;;19.10;3.85;;;9.80;99.90;;;;;;5028353;28;20029;-62
2022/12/24 09:34:47;;;;;;;30.33;6.25;;;9.90;99.90;;;;;;5023612;28;20029;-62
2022/12/24 09:37:13;;;;;;;27.70;4.97;;;9.90;99.90;;;;;;5029474;28;20519;-62
2022/12/24 09:39:38;;;;;;;18.23;4.30;;;9.90;99.90;;;;;;5018231;28;20036;-62
2022/12/24 09:42:24;;;;;;;34.08;7.55;;;9.90;99.90;;;;;;5017389;28;20033;-62
2022/12/24 09:44:57;;;;;;;29.40;8.88;;;9.90;99.90;;;;;;5028408;28;20047;-62
2022/12/24 09:47:45;;;;;;;42.25;9.80;;;9.90;99.90;;;;;;5019788;28;20021;-62
2022/12/24 09:50:49;;;;;;;24.35;6.10;;;9.90;99.90;;;;;;5026385;28;20025;-63
2022/12/24 09:53:22;;;;;;;48.90;12.85;;;9.90;99.90;;;;;;5010904;28;20043;-62
2022/12/24 09:55:53;;;;;;;51.22;13.45;;;9.90;99.90;;;;;;5011067;28;20113;-63
2022/12/24 09:58:25;;;;;;;40.97;11.80;;;9.90;99.90;;;;;;5019960;28;20057;-63
2022/12/24 10:00:52;;;;;;;45.13;13.80;;;10.00;99.90;;;;;;5024661;28;20021;-62
2022/12/24 10:03:18;;;;;;;39.10;9.90;;;10.00;99.90;;;;;;5025673;28;20068;-62
2022/12/24 10:06:01;;;;;;;23.50;4.97;;;10.10;99.90;;;;;;5034530;28;20049;-61
2022/12/24 10:08:51;;;;;;;31.10;8.52;;;10.10;99.90;;;;;;5021938;28;20061;-62
2022/12/24 10:11:34;;;;;;;19.77;5.55;;;10.10;99.90;;;;;;5025686;28;20029;-61
2022/12/24 10:14:09;;;;;;;24.47;4.67;;;10.10;99.90;;;;;;5034018;28;20419;-62
2022/12/24 10:17:02;;;;;;;14.00;3.47;;;10.10;99.90;;;;;;5029764;28;20404;-62
2022/12/24 10:19:47;;;;;;;23.33;3.28;;;10.10;99.90;;;;;;5028849;28;20044;-62
2022/12/24 10:22:24;;;;;;;20.25;5.32;;;10.10;99.90;;;;;;5030625;28;20021;-62
2022/12/24 10:25:22;;;;;;;21.65;5.65;;;10.10;99.90;;;;;;5034133;28;20096;-62
2022/12/24 10:27:49;;;;;;;20.73;5.10;;;10.10;99.90;;;;;;5008601;28;20030;-61
2022/12/24 10:30:18;;;;;;;24.00;5.45;;;10.10;99.90;;;;;;5023361;28;20423;-61
2022/12/24 10:32:46;;;;;;;17.15;5.30;;;10.10;99.90;;;;;;5025655;28;20025;-62
2022/12/24 10:35:15;;;;;;;20.10;5.38;;;10.10;99.90;;;;;;5025448;28;20029;-64
2022/12/24 10:37:43;;;;;;;29.67;4.95;;;10.10;99.90;;;;;;5033633;28;20025;-62
2022/12/24 10:40:23;;;;;;;27.80;5.63;;;10.10;99.90;;;;;;5024266;28;20054;-62
2022/12/24 10:42:49;;;;;;;23.50;3.95;;;10.20;99.90;;;;;;5029718;23;20103;-68
2022/12/24 10:45:17;;;;;;;23.85;3.95;;;10.20;99.90;;;;;;5023057;28;20034;-67
2022/12/24 10:47:46;;;;;;;26.67;5.22;;;10.30;99.90;;;;;;5025751;28;20029;-68
2022/12/24 10:50:21;;;;;;;24.38;4.75;;;10.30;99.90;;;;;;5023512;28;20041;-69
2022/12/24 10:52:50;;;;;;;32.50;5.70;;;10.30;99.90;;;;;;5029612;28;20025;-69
2022/12/24 10:55:18;;;;;;;21.50;5.10;;;10.40;99.90;;;;;;5033050;28;20653;-67
2022/12/24 10:58:00;;;;;;;20.65;5.53;;;10.40;99.90;;;;;;5027948;28;20427;-67
2022/12/24 11:00:25;;;;;;;28.13;12.80;;;10.40;99.90;;;;;;5030588;28;20033;-67
2022/12/24 11:03:17;;;;;;;50.25;9.35;;;10.40;99.90;;;;;;5032756;28;20068;-66
2022/12/24 11:05:42;;;;;;;27.05;7.95;;;10.40;99.90;;;;;;5024026;28;20411;-67
2022/12/24 11:08:16;;;;;;;31.85;5.47;;;10.50;99.90;;;;;;5015748;28;20025;-66
2022/12/24 11:10:53;;;;;;;40.65;10.13;;;10.50;99.90;;;;;;5032364;28;20033;-67
2022/12/24 11:13:33;;;;;;;29.98;8.57;;;10.50;99.90;;;;;;5030593;28;20086;-67
2022/12/24 11:16:34;;;;;;;39.40;12.80;;;10.60;99.90;;;;;;5032945;28;20064;-66
2022/12/24 11:19:13;;;;;;;38.33;14.40;;;10.60;99.90;;;;;;5013182;28;20033;-67
2022/12/24 11:21:40;;;;;;;32.75;9.25;;;10.60;99.90;;;;;;5024552;28;20029;-67
2022/12/24 11:24:27;;;;;;;34.97;7.72;;;10.80;99.90;;;;;;5032670;28;20087;-67
2022/12/24 11:26:53;;;;;;;29.80;5.20;;;10.90;99.90;;;;;;5022599;28;20033;-67
2022/12/24 11:29:23;;;;;;;27.30;7.35;;;11.00;99.90;;;;;;5032275;28;20033;-68
2022/12/24 11:31:51;;;;;;;22.92;6.25;;;11.00;99.90;;;;;;5024234;28;20034;-68
2022/12/24 11:34:24;;;;;;;30.17;5.47;;;11.00;99.90;;;;;;5028894;28;20045;-67
2022/12/24 11:36:51;;;;;;;22.57;5.63;;;11.00;99.90;;;;;;5032774;28;20032;-66
2022/12/24 11:39:20;;;;;;;26.13;6.90;;;11.10;99.90;;;;;;5028028;28;20778;-68
2022/12/24 11:41:46;;;;;;;29.23;7.18;;;11.10;99.90;;;;;;5023933;28;20034;-68
2022/12/24 11:44:11;;;;;;;20.33;3.85;;;11.10;99.90;;;;;;5026495;28;20033;-68
2022/12/24 11:46:45;;;;;;;34.90;6.13;;;11.10;99.90;;;;;;5032190;28;20728;-67
2022/12/24 11:49:10;;;;;;;30.00;6.10;;;11.10;99.90;;;;;;5032241;28;20037;-68
2022/12/24 11:51:37;;;;;;;23.58;7.22;;;11.20;99.90;;;;;;5025927;28;20041;-68
2022/12/24 11:54:19;;;;;;;21.33;4.97;;;11.40;99.90;;;;;;5030584;28;20029;-66
2022/12/24 11:56:51;;;;;;;19.20;3.85;;;11.60;99.90;;;;;;5027555;28;20602;-66
2022/12/24 11:59:29;;;;;;;30.35;4.43;;;11.80;99.90;;;;;;5029816;28;20059;-68
2022/12/24 12:02:15;;;;;;;16.52;3.10;;;11.80;99.90;;;;;;5028143;28;20387;-68
2022/12/24 12:04:45;;;;;;;24.45;4.03;;;11.90;99.90;;;;;;5028792;28;20033;-66
2022/12/24 12:07:17;;;;;;;21.05;4.13;;;11.90;99.90;;;;;;5025379;28;20032;-68
2022/12/24 12:10:15;;;;;;;25.35;5.68;;;11.70;99.90;;;;;;5031091;28;20018;-68
2022/12/24 12:12:44;;;;;;;22.40;5.05;;;11.60;99.90;;;;;;4999656;28;20045;-68
2022/12/24 12:15:18;;;;;;;33.63;6.95;;;11.40;99.90;;;;;;5031400;28;20029;-67
2022/12/24 12:17:43;;;;;;;32.08;6.43;;;11.20;99.90;;;;;;5031905;28;20029;-68
2022/12/24 12:20:21;;;;;;;25.38;5.65;;;11.20;99.90;;;;;;5029480;28;20055;-67
2022/12/24 12:23:14;;;;;;;30.02;3.42;;;11.10;99.90;;;;;;5022899;28;20025;-67
2022/12/24 12:25:56;;;;;;;18.10;4.10;;;11.10;99.90;;;;;;5022879;28;20044;-68
2022/12/24 12:28:31;;;;;;;20.67;4.72;;;11.20;99.90;;;;;;5031427;28;20550;-66
2022/12/24 12:31:08;;;;;;;22.70;4.60;;;11.20;99.90;;;;;;5031287;28;20068;-68
2022/12/24 12:33:42;;;;;;;24.13;5.03;;;11.20;99.90;;;;;;5030325;28;20033;-67
2022/12/24 12:36:10;;;;;;;29.52;4.82;;;11.30;99.90;;;;;;5024672;28;20040;-68
2022/12/24 12:38:36;;;;;;;28.58;5.20;;;11.20;99.90;;;;;;5022868;28;20545;-67
2022/12/24 12:41:17;;;;;;;31.52;5.82;;;11.30;99.90;;;;;;5031055;28;20058;-68
2022/12/24 12:43:55;;;;;;;25.17;5.43;;;11.30;99.90;;;;;;5031147;28;20087;-67
2022/12/24 12:46:48;;;;;;;22.45;5.05;;;11.30;99.90;;;;;;5031119;28;20029;-67
2022/12/24 12:49:43;;;;;;;36.40;6.22;;;11.40;99.90;;;;;;4996722;28;20120;-68
2022/12/24 12:52:20;;;;;;;23.67;6.55;;;11.40;99.90;;;;;;5027436;28;20072;-68
2022/12/24 12:55:01;;;;;;;20.67;5.47;;;11.40;99.90;;;;;;5006162;28;20033;-68
2022/12/24 12:57:34;;;;;;;28.83;5.65;;;11.40;99.90;;;;;;5029532;28;20032;-67
2022/12/24 13:00:05;;;;;;;22.40;4.30;;;11.50;99.90;;;;;;5029234;28;20052;-67
2022/12/24 13:02:49;;;;;;;24.27;3.78;;;11.50;99.90;;;;;;5030792;28;20013;-68